Current Weather

Remada

Remada, Tunisia (DTTD)

Report from: Saturday, June 22, 2024 10:00 AM CET
Current time: Saturday, June 22, 2024 11:01 AM CET

Nearby weather – Weather history – Daily summaries
Weather forecast

Temperature27.0°C (80.6°F)
Heat index28.2°C (82.7°F)
Dew point18.0°C (64.4°F)
Winds 8 kts (4.1 m/s, 9.2 mph) Vrb
Winds variableWinds variable from North-Northeast (30°) to Southeast (140°)
Clouds Sky clear
Altimeter30.03 in.Hg (1017 mB)
Relative humidity58 %
Density altitude1,540 ft. (469 m)
Remarks Ceiling and visibility OK
Flight conditions Visual Meteorological Conditions
Raw dataDTTD 220900Z 08008KT 030V140 CAVOK 27/18 Q1017
An error has occurred. This application may no longer respond until reloaded. Reload 🗙